Time;durP1;ratioP1;P1;durP2;ratioP2;P2;SDS_P1;SDS_P2;PMS_P1;PMS_P2;Temp;Humidity;BMP_temperature;BMP_pressure;BME280_temperature;BME280_humidity;BME280_pressure;Samples;Min_cycle;Max_cycle;Signal;HPM_P1;HPM_P2
2022/09/21 00:07:06;;;;;;;0.13;0.10;;;;;;;17.01;85.22;102330.28;21205293;27;20459;-75
2022/09/21 00:17:08;;;;;;;0.28;0.10;;;;;;;17.01;85.22;102342.91;21167709;27;20499;-74
2022/09/21 00:27:10;;;;;;;0.20;0.20;;;;;;;17.01;85.10;102342.91;21216644;27;20055;-75
2022/09/21 00:37:11;;;;;;;0.25;0.20;;;;;;;16.94;84.93;102328.91;21214205;27;20411;-74
2022/09/21 00:47:15;;;;;;;0.10;0.10;;;;;;;17.00;84.91;102330.41;21215349;27;20076;-75
2022/09/21 00:57:20;;;;;;;0.28;0.20;;;;;;;16.99;85.12;102334.06;21213116;27;20035;-75
2022/09/21 01:07:26;;;;;;;0.10;0.10;;;;;;;17.00;84.96;102341.16;21168220;27;20055;-75
2022/09/21 01:17:46;;;;;;;0.10;0.10;;;;;;;16.96;85.07;102333.25;21178511;27;20047;-75
2022/09/21 01:27:56;;;;;;;0.10;0.10;;;;;;;16.98;84.88;102332.31;21213276;27;20051;-75
2022/09/21 01:38:09;;;;;;;0.20;0.10;;;;;;;16.93;84.89;102327.19;21211592;27;20066;-75
2022/09/21 01:48:12;;;;;;;0.15;0.10;;;;;;;16.87;84.89;102323.06;21210905;27;20099;-74
2022/09/21 01:58:17;;;;;;;0.55;0.20;;;;;;;16.95;84.98;102334.22;21210450;27;20128;-74
2022/09/21 02:08:19;;;;;;;0.40;0.40;;;;;;;16.96;84.88;102337.75;21158710;27;20076;-75
2022/09/21 02:18:56;;;;;;;0.30;0.30;;;;;;;16.95;84.89;102339.59;21210790;27;20048;-74
2022/09/21 02:29:10;;;;;;;0.30;0.10;;;;;;;16.94;84.96;102340.56;21211337;27;20051;-75
2022/09/21 02:39:49;;;;;;;0.10;0.10;;;;;;;16.78;84.97;102310.16;21207760;27;20563;-75
2022/09/21 02:49:53;;;;;;;0.10;0.10;;;;;;;16.93;84.85;102337.94;21220355;27;20507;-74
2022/09/21 02:59:55;;;;;;;0.10;0.10;;;;;;;16.70;84.84;102294.53;21222670;27;20498;-74
2022/09/21 03:09:57;;;;;;;0.13;0.13;;;;;;;16.92;84.83;102331.72;21149042;27;20054;-72
2022/09/21 03:19:58;;;;;;;0.10;0.10;;;;;;;16.75;84.68;102299.59;21220939;27;20396;-72
2022/09/21 03:30:00;;;;;;;0.10;0.10;;;;;;;16.90;84.77;102333.63;21220284;27;20047;-75
2022/09/21 03:40:03;;;;;;;0.20;0.20;;;;;;;16.91;84.81;102343.44;21220321;27;20043;-75
2022/09/21 03:50:06;;;;;;;0.20;0.20;;;;;;;16.89;84.75;102339.09;21201550;27;20059;-74
2022/09/21 04:00:11;;;;;;;0.20;0.20;;;;;;;16.90;84.66;102343.50;21184473;27;20047;-75
2022/09/21 04:10:15;;;;;;;0.32;0.20;;;;;;;16.89;84.74;102349.84;21174845;27;20066;-75
2022/09/21 04:20:17;;;;;;;0.77;0.20;;;;;;;16.88;84.61;102346.31;21218026;27;20051;-75
2022/09/21 04:30:19;;;;;;;0.20;0.10;;;;;;;16.88;84.70;102345.44;21215572;27;20138;-75
2022/09/21 04:40:22;;;;;;;0.30;0.20;;;;;;;16.86;84.64;102353.63;21197008;27;20039;-75
2022/09/21 04:50:23;;;;;;;0.25;0.22;;;;;;;16.86;84.52;102350.94;21215481;27;20054;-74
2022/09/21 05:00:36;;;;;;;0.20;0.20;;;;;;;16.87;84.51;102365.22;21190543;27;20043;-74
2022/09/21 05:10:38;;;;;;;0.32;0.20;;;;;;;16.85;84.58;102368.03;21169213;27;20055;-74
2022/09/21 05:20:39;;;;;;;0.17;0.17;;;;;;;16.85;84.50;102373.41;21213581;27;20096;-74
2022/09/21 05:30:47;;;;;;;0.40;0.10;;;;;;;16.76;84.50;102360.50;21213028;27;20399;-75
2022/09/21 05:41:08;;;;;;;0.10;0.10;;;;;;;16.84;84.58;102384.25;21211477;27;20055;-79
2022/09/21 05:51:28;;;;;;;0.10;0.10;;;;;;;16.84;84.51;102389.63;21194457;27;20145;-75
2022/09/21 06:01:39;;;;;;;0.15;0.10;;;;;;;16.83;84.53;102394.16;21108504;27;20053;-74
2022/09/21 06:11:40;;;;;;;0.30;0.20;;;;;;;16.82;84.41;102395.13;21225861;27;20051;-74
2022/09/21 06:21:42;;;;;;;0.10;0.10;;;;;;;16.82;84.42;102406.72;21225836;27;20099;-75
2022/09/21 06:31:43;;;;;;;0.20;0.20;;;;;;;16.82;84.35;102405.88;21226467;27;20054;-75
2022/09/21 06:41:45;;;;;;;0.10;0.10;;;;;;;16.82;84.48;102406.72;21224218;27;20047;-75
2022/09/21 06:51:47;;;;;;;0.10;0.10;;;;;;;16.82;84.34;102405.88;21224844;27;20441;-75
2022/09/21 07:01:48;;;;;;;0.17;0.13;;;;;;;16.82;84.28;102397.81;21168059;27;20159;-75
2022/09/21 07:11:50;;;;;;;0.10;0.10;;;;;;;16.82;84.15;102400.50;21218712;27;20111;-75
2022/09/21 07:21:53;;;;;;;0.15;0.15;;;;;;;16.78;84.01;102409.69;21219736;27;20047;-75
2022/09/21 07:31:55;;;;;;;0.20;0.20;;;;;;;16.81;84.05;102414.91;21224640;27;20459;-76
2022/09/21 07:41:59;;;;;;;0.15;0.15;;;;;;;16.81;84.11;102412.22;21220924;27;20047;-74
2022/09/21 07:52:01;;;;;;;0.20;0.20;;;;;;;16.82;84.03;102405.88;21218615;27;20046;-75
2022/09/21 08:02:06;;;;;;;0.10;0.10;;;;;;;16.83;84.17;102402.22;21124958;27;20134;-74
2022/09/21 08:12:10;;;;;;;0.10;0.10;;;;;;;16.84;84.18;102400.38;21218801;27;20126;-74
2022/09/21 08:22:12;;;;;;;0.10;0.10;;;;;;;16.85;84.07;102419.13;21217176;27;20487;-74
2022/09/21 08:32:14;;;;;;;0.10;0.10;;;;;;;16.88;83.90;102420.75;21217096;27;20563;-74
2022/09/21 08:42:50;;;;;;;0.10;0.10;;;;;;;16.92;83.88;102425.88;21215798;27;20051;-75
2022/09/21 08:52:51;;;;;;;;;;;;;;;16.95;83.70;102431.06;21213688;27;20043;-75
2022/09/21 09:03:17;;;;;;;0.10;0.10;;;;;;;16.96;83.58;102423.84;21172514;27;20332;-74
2022/09/21 09:13:42;;;;;;;0.10;0.10;;;;;;;16.96;83.57;102432.78;21208838;27;20058;-74
2022/09/21 09:23:53;;;;;;;0.30;0.10;;;;;;;16.95;83.50;102443.63;21213266;27;20047;-75
2022/09/21 09:33:59;;;;;;;0.30;0.20;;;;;;;16.82;83.51;102425.53;21204135;27;20050;-75
2022/09/21 09:44:25;;;;;;;0.10;0.10;;;;;;;16.95;83.62;102439.13;21204844;27;20047;-74
2022/09/21 09:54:28;;;;;;;0.10;0.10;;;;;;;16.84;83.73;102414.72;21197156;27;20478;-74
2022/09/21 10:04:31;;;;;;;0.10;0.10;;;;;;;16.81;83.79;102407.69;21193656;27;20130;-75
2022/09/21 10:14:33;;;;;;;0.20;0.20;;;;;;;16.93;83.75;102435.66;21226197;27;20050;-74
2022/09/21 10:24:37;;;;;;;0.10;0.10;;;;;;;16.93;83.66;102432.97;21225733;27;20046;-73
2022/09/21 10:35:00;;;;;;;0.10;0.10;;;;;;;16.92;84.03;102412.41;21230005;27;20116;-77
2022/09/21 10:45:16;;;;;;;0.10;0.10;;;;;;;16.78;83.51;102394.41;21230742;27;20376;-74
2022/09/21 10:55:21;;;;;;;0.10;0.10;;;;;;;16.93;83.62;102418.66;21135762;27;20051;-73
2022/09/21 11:05:27;;;;;;;0.20;0.20;;;;;;;16.92;83.62;102423.19;21223999;27;20427;-73
2022/09/21 11:15:29;;;;;;;0.20;0.20;;;;;;;16.91;83.68;102421.44;21223906;27;20050;-74
2022/09/21 11:25:36;;;;;;;0.20;0.20;;;;;;;16.92;83.71;102412.41;21221835;27;20189;-73
2022/09/21 11:36:00;;;;;;;0.20;0.20;;;;;;;16.91;83.82;102413.38;21203392;27;20426;-74
2022/09/21 11:46:14;;;;;;;0.10;0.10;;;;;;;16.87;83.87;102401.06;21221211;27;20066;-74
2022/09/21 11:56:45;;;;;;;0.10;0.10;;;;;;;16.92;83.78;102398.09;21158673;27;20066;-74
2022/09/21 12:07:08;;;;;;;0.20;0.20;;;;;;;16.93;83.83;102387.25;21162462;27;20134;-73
2022/09/21 12:17:33;;;;;;;0.10;0.10;;;;;;;16.93;83.88;102379.19;21216750;27;20047;-74
2022/09/21 12:27:39;;;;;;;0.20;0.17;;;;;;;16.93;83.70;102365.72;21213737;27;20051;-77
2022/09/21 12:37:48;;;;;;;0.35;0.15;;;;;;;16.93;83.72;102363.03;21215258;27;20047;-73
2022/09/21 12:47:59;;;;;;;1.45;0.30;;;;;;;16.79;83.69;102336.09;21197884;27;20081;-74
2022/09/21 12:58:11;;;;;;;0.10;0.10;;;;;;;16.78;83.56;102342.44;21137151;27;20051;-73
2022/09/21 13:08:29;;;;;;;0.20;0.20;;;;;;;16.94;83.91;102345.94;21212803;27;20073;-73
2022/09/21 13:18:37;;;;;;;0.20;0.20;;;;;;;16.86;83.67;102328.53;21211970;27;20039;-73
2022/09/21 13:28:54;;;;;;;0.20;0.20;;;;;;;16.94;83.75;102345.94;21212150;27;20055;-73
2022/09/21 13:39:04;;;;;;;0.10;0.10;;;;;;;16.93;83.79;102338.81;21212988;27;20047;-73
2022/09/21 13:49:09;;;;;;;0.17;0.13;;;;;;;16.93;83.84;102328.06;21169790;27;20106;-74
2022/09/21 13:59:22;;;;;;;0.10;0.10;;;;;;;16.87;83.75;102317.69;21209758;27;20046;-73
2022/09/21 14:09:30;;;;;;;0.20;0.20;;;;;;;16.93;83.86;102314.63;21211156;27;20101;-73
2022/09/21 14:19:32;;;;;;;0.10;0.10;;;;;;;16.92;83.77;102310.19;21209738;27;20124;-74
2022/09/21 14:29:49;;;;;;;0.10;0.10;;;;;;;16.94;83.96;102299.31;21219091;27;20155;-74
2022/09/21 14:39:51;;;;;;;0.20;0.20;;;;;;;16.94;83.87;102297.50;21225844;27;20061;-73
2022/09/21 14:49:58;;;;;;;0.17;0.17;;;;;;;16.93;83.98;102295.78;21157027;27;20355;-73
2022/09/21 15:00:25;;;;;;;0.32;0.20;;;;;;;16.95;83.78;102275.03;21224705;27;20517;-74
2022/09/21 15:10:55;;;;;;;0.17;0.10;;;;;;;16.96;83.73;102273.19;21224111;27;20055;-73
2022/09/21 15:21:02;;;;;;;0.20;0.20;;;;;;;16.95;83.77;102272.34;21208066;27;20046;-74
2022/09/21 15:31:06;;;;;;;0.17;0.17;;;;;;;16.89;83.74;102247.66;21220627;27;20147;-73
2022/09/21 15:41:41;;;;;;;0.38;0.10;;;;;;;16.96;83.83;102252.56;21219046;27;20455;-73
2022/09/21 15:51:45;;;;;;;0.17;0.17;;;;;;;16.96;83.72;102252.56;21131277;27;20043;-74
2022/09/21 16:01:51;;;;;;;0.17;0.17;;;;;;;16.95;83.84;102258.00;21219548;27;20495;-73
2022/09/21 16:11:53;;;;;;;0.28;0.17;;;;;;;16.88;83.75;102238.72;21217464;27;20051;-74
2022/09/21 16:22:02;;;;;;;0.10;0.10;;;;;;;16.82;83.74;102229.22;21199360;27;20054;-74
2022/09/21 16:32:16;;;;;;;0.20;0.20;;;;;;;16.94;83.92;102243.72;21216009;27;20400;-74
2022/09/21 16:42:18;;;;;;;0.85;0.10;;;;;;;16.94;83.83;102241.03;21215994;27;20087;-73
2022/09/21 16:52:21;;;;;;;0.30;0.30;;;;;;;16.93;83.52;102247.38;21154288;27;20578;-73
2022/09/21 17:02:23;;;;;;;0.10;0.10;;;;;;;16.89;84.01;102237.75;21213590;27;20053;-73
2022/09/21 17:12:27;;;;;;;0.30;0.20;;;;;;;16.63;83.83;102191.00;21214597;27;20082;-73
2022/09/21 17:22:29;;;;;;;0.10;0.10;;;;;;;16.92;84.02;102244.75;21213827;27;20045;-73
2022/09/21 17:32:30;;;;;;;0.13;0.10;;;;;;;16.91;84.00;102249.28;21194969;27;20046;-74
2022/09/21 17:42:40;;;;;;;0.10;0.10;;;;;;;16.91;84.01;102253.78;21174983;27;20104;-73
2022/09/21 18:03:04;;;;;;;0.20;0.20;;;;;;;16.89;84.03;102240.44;21219319;27;20096;-73
2022/09/21 18:13:15;;;;;;;0.10;0.10;;;;;;;16.89;84.10;102242.25;21210246;27;20088;-74
2022/09/21 18:23:44;;;;;;;0.08;0.08;;;;;;;16.89;84.04;102261.97;21208424;27;20043;-73
2022/09/21 18:33:58;;;;;;;0.45;0.20;;;;;;;16.88;84.11;102265.63;21223187;27;20049;-74
2022/09/21 18:44:40;;;;;;;0.22;0.20;;;;;;;16.87;84.00;102266.59;21176440;27;20092;-73
2022/09/21 18:54:42;;;;;;;0.10;0.10;;;;;;;16.88;84.14;102259.38;21222682;27;20491;-74
2022/09/21 19:04:44;;;;;;;0.10;0.10;;;;;;;16.61;84.20;102220.66;21224503;27;20670;-73
2022/09/21 19:14:57;;;;;;;0.40;0.17;;;;;;;16.86;84.02;102267.53;21222499;27;20100;-74
2022/09/21 19:25:11;;;;;;;0.10;0.10;;;;;;;16.75;83.98;102240.44;21221075;27;20061;-73
2022/09/21 19:35:28;;;;;;;0.30;0.15;;;;;;;16.78;84.01;102253.69;21221925;27;20513;-74
2022/09/21 19:46:07;;;;;;;0.10;0.10;;;;;;;16.84;84.19;102274.84;21148841;27;20138;-74
2022/09/21 20:06:41;;;;;;;0.10;0.10;;;;;;;16.83;84.09;102273.13;21218111;27;20039;-75
2022/09/21 20:16:46;;;;;;;0.10;0.10;;;;;;;16.84;84.09;102282.03;21200633;27;20043;-73
2022/09/21 20:26:49;;;;;;;0.10;0.10;;;;;;;16.84;83.98;102292.78;21217781;27;20046;-74
2022/09/21 20:36:51;;;;;;;0.10;0.10;;;;;;;16.82;83.93;102287.53;21215352;27;20051;-74
2022/09/21 20:46:52;;;;;;;0.10;0.10;;;;;;;16.82;84.01;102279.47;21125263;27;20380;-73
2022/09/21 20:56:54;;;;;;;0.15;0.10;;;;;;;16.81;83.91;102286.66;21215525;27;20075;-74
2022/09/21 21:06:55;;;;;;;0.10;0.10;;;;;;;16.81;83.97;102275.03;21214782;27;20046;-74
2022/09/21 21:16:57;;;;;;;0.25;0.10;;;;;;;16.81;83.92;102272.34;21214258;27;20070;-74
2022/09/21 21:26:59;;;;;;;0.20;0.20;;;;;;;16.73;83.98;102255.81;21211876;27;20035;-74
2022/09/21 21:37:04;;;;;;;0.10;0.10;;;;;;;16.80;83.90;102274.16;21201132;27;20059;-74
2022/09/21 21:47:05;;;;;;;0.15;0.10;;;;;;;16.79;83.95;102276.94;21187588;27;20054;-73
2022/09/21 21:57:27;;;;;;;0.20;0.10;;;;;;;16.81;83.81;102275.03;21228485;27;20445;-74
2022/09/21 22:07:28;;;;;;;0.30;0.20;;;;;;;16.78;83.86;102262.63;21228648;27;20043;-74
2022/09/21 22:17:30;;;;;;;0.20;0.20;;;;;;;16.56;83.89;102238.91;21226106;27;20568;-74
2022/09/21 22:27:32;;;;;;;0.15;0.15;;;;;;;16.77;83.79;102263.59;21227399;27;20423;-74
2022/09/21 22:37:33;;;;;;;0.10;0.10;;;;;;;16.77;83.85;102262.72;21145040;27;20049;-74
2022/09/21 22:47:35;;;;;;;0.10;0.10;;;;;;;16.77;83.90;102262.72;21224298;27;20051;-73
2022/09/21 22:57:36;;;;;;;0.10;0.10;;;;;;;16.76;83.81;102255.59;21224593;27;20112;-74
2022/09/21 23:07:37;;;;;;;0.20;0.15;;;;;;;16.76;83.84;102256.50;21223527;27;20057;-74
2022/09/21 23:17:39;;;;;;;0.15;0.15;;;;;;;16.58;83.48;102236.97;21223255;27;20069;-77
2022/09/21 23:27:41;;;;;;;0.13;0.13;;;;;;;16.75;83.71;102245.81;21221394;27;20051;-73
2022/09/21 23:37:42;;;;;;;0.17;0.17;;;;;;;16.74;83.74;102249.47;21135193;27;20047;-74
2022/09/21 23:47:44;;;;;;;0.30;0.20;;;;;;;16.73;83.76;102245.94;21202460;27;20096;-74
2022/09/21 23:57:45;;;;;;;0.40;0.20;;;;;;;16.73;83.60;102239.66;21218110;27;20059;-73
